createdAt,value
2022-10-19T00:01:16.085Z,101405.94
2022-10-19T00:03:45.799Z,101404.78
2022-10-19T00:06:26.625Z,101395.47
2022-10-19T00:08:55.735Z,101399.25
2022-10-19T00:11:24.654Z,101398.78
2022-10-19T00:13:55.607Z,101393.88
2022-10-19T00:16:28.197Z,101384.53
2022-10-19T00:18:58.036Z,101388.81
2022-10-19T00:21:25.839Z,101375.03
2022-10-19T00:23:53.908Z,101369.19
2022-10-19T00:26:22.217Z,101365.03
2022-10-19T00:28:50.611Z,101366.41
2022-10-19T00:31:18.610Z,101361.34
2022-10-19T00:33:49.215Z,101358.78
2022-10-19T00:36:21.202Z,101349.47
2022-10-19T00:38:48.956Z,101343.22
2022-10-19T00:41:16.915Z,101339.34
2022-10-19T00:44:13.953Z,101330.63
2022-10-19T00:46:43.688Z,101332.06
2022-10-19T00:49:14.032Z,101327.16
2022-10-19T00:51:44.043Z,101322.22
2022-10-19T00:54:11.816Z,101324.91
2022-10-19T00:56:41.215Z,101313.56
2022-10-19T00:59:09.526Z,101305.53
2022-10-19T01:01:37.203Z,101298.41
2022-10-19T01:04:05.146Z,101299.44
2022-10-19T01:06:33.329Z,101298.13
2022-10-19T01:09:01.238Z,101306.47
2022-10-19T01:12:00.734Z,101302.53
2022-10-19T01:14:56.243Z,101306.06
2022-10-19T01:17:56.249Z,101307.94
2022-10-19T01:20:59.444Z,101310.09
2022-10-19T01:23:51.443Z,101315.44
2022-10-19T01:26:24.644Z,101314.81
2022-10-19T01:28:54.187Z,101307.88
2022-10-19T01:31:32.698Z,101316.56
2022-10-19T01:34:20.149Z,101316.69
2022-10-19T01:37:00.096Z,101309.06
2022-10-19T01:39:37.896Z,101298.44
2022-10-19T01:42:30.280Z,101303.19
2022-10-19T01:45:03.740Z,101293.13
2022-10-19T01:47:38.404Z,101300.78
2022-10-19T01:50:27.345Z,101294.72
2022-10-19T01:52:55.278Z,101291.03
2022-10-19T01:55:24.707Z,101277.19
2022-10-19T01:57:59.525Z,101282.78
2022-10-19T02:00:28.726Z,101281.19
2022-10-19T02:02:56.637Z,101278.63
2022-10-19T02:05:32.583Z,101262.25
2022-10-19T02:08:04.377Z,101270.22
2022-10-19T02:10:32.449Z,101265.78
2022-10-19T02:13:03.647Z,101261.22
2022-10-19T02:15:32.053Z,101256.88
2022-10-19T02:18:00.062Z,101250.91
2022-10-19T02:20:29.936Z,101259.16
2022-10-19T02:22:57.606Z,101251.75
2022-10-19T02:25:25.954Z,101253.69
2022-10-19T02:27:53.685Z,101250.69
2022-10-19T02:30:22.579Z,101247.47
2022-10-19T02:32:50.195Z,101241.25
2022-10-19T02:35:18.104Z,101238.56
2022-10-19T02:37:45.815Z,101236.28
2022-10-19T02:40:14.738Z,101224.63
2022-10-19T02:42:47.627Z,101232.44
2022-10-19T02:45:21.183Z,101226.47
2022-10-19T02:48:00.576Z,101217.91
2022-10-19T02:50:28.907Z,101224.72
2022-10-19T02:53:00.425Z,101212.31
2022-10-19T02:55:29.220Z,101206.22
2022-10-19T02:57:57.551Z,101194.22
2022-10-19T03:00:25.425Z,101194.63
2022-10-19T03:02:53.183Z,101183.81
2022-10-19T03:05:21.261Z,101182.97
2022-10-19T03:07:48.849Z,101181.25
2022-10-19T03:10:16.874Z,101183.69
2022-10-19T03:12:44.552Z,101177.31
2022-10-19T03:15:27.360Z,101165.94
2022-10-19T03:17:57.445Z,101161.97
2022-10-19T03:20:25.256Z,101159.69
2022-10-19T03:25:20.598Z,101155.16
2022-10-19T03:27:48.245Z,101152.28
2022-10-19T03:30:16.172Z,101158.69
2022-10-19T03:32:46.435Z,101146.00
2022-10-19T03:35:14.026Z,101141.19
2022-10-19T03:37:42.710Z,101147.75
2022-10-19T03:40:10.497Z,101132.66
2022-10-19T03:42:39.080Z,101134.78
2022-10-19T03:45:07.291Z,101138.19
2022-10-19T03:47:35.276Z,101135.19
2022-10-19T03:50:06.192Z,101119.66
2022-10-19T03:52:34.754Z,101118.78
2022-10-19T03:55:02.514Z,101111.41
2022-10-19T03:57:30.314Z,101105.72
2022-10-19T03:59:58.068Z,101103.31
2022-10-19T04:02:25.731Z,101093.03
2022-10-19T04:04:57.257Z,101093.31
2022-10-19T04:07:25.016Z,101094.59
2022-10-19T04:09:52.594Z,101084.19
2022-10-19T04:12:21.354Z,101081.22
2022-10-19T04:14:57.708Z,101086.19
2022-10-19T04:17:26.189Z,101084.78
2022-10-19T04:19:54.534Z,101069.69
2022-10-19T04:22:23.489Z,101072.41
2022-10-19T04:24:51.440Z,101067.41
2022-10-19T04:27:19.502Z,101062.59
2022-10-19T04:29:47.561Z,101070.28
2022-10-19T04:32:15.407Z,101046.47
2022-10-19T04:34:43.130Z,101044.63
2022-10-19T04:37:10.746Z,101049.19
2022-10-19T04:39:41.144Z,101044.47
2022-10-19T04:42:09.445Z,101033.16
2022-10-19T04:44:37.140Z,101041.97
2022-10-19T04:47:05.168Z,101023.13
2022-10-19T04:49:33.048Z,101019.22
2022-10-19T04:52:03.931Z,101023.41
2022-10-19T04:54:32.107Z,101016.66
2022-10-19T04:56:59.797Z,101016.13
2022-10-19T04:59:28.354Z,101011.34
2022-10-19T05:01:56.103Z,100996.69
2022-10-19T05:04:23.877Z,100989.28
2022-10-19T05:06:52.066Z,100984.16
2022-10-19T05:09:19.982Z,100983.25
2022-10-19T05:11:50.438Z,100979.13
2022-10-19T05:14:20.111Z,100984.66
2022-10-19T05:16:47.698Z,100976.78
2022-10-19T05:19:18.239Z,100983.72
2022-10-19T05:21:45.838Z,100976.47
2022-10-19T05:24:13.943Z,100982.00
2022-10-19T05:26:43.489Z,100970.13
2022-10-19T05:29:12.735Z,100970.28
2022-10-19T05:31:40.813Z,100975.09
2022-10-19T05:34:08.852Z,100971.56
2022-10-19T05:36:38.183Z,100965.59
2022-10-19T05:39:12.758Z,100970.06
2022-10-19T05:41:42.918Z,100967.81
2022-10-19T05:44:14.511Z,100970.91
2022-10-19T05:46:42.304Z,100968.19
2022-10-19T05:49:11.460Z,100954.94
2022-10-19T05:51:39.206Z,100965.63
2022-10-19T05:54:08.166Z,100957.47
2022-10-19T05:56:36.072Z,100961.19
2022-10-19T05:59:05.636Z,100964.75
2022-10-19T06:01:34.740Z,100966.09
2022-10-19T06:04:03.767Z,100961.50
2022-10-19T06:06:34.288Z,100951.94
2022-10-19T06:09:01.994Z,100947.97
2022-10-19T06:11:31.321Z,100947.09
2022-10-19T06:14:02.824Z,100938.91
2022-10-19T06:16:31.985Z,100933.06
2022-10-19T06:18:59.932Z,100931.97
2022-10-19T06:21:30.834Z,100932.25
2022-10-19T06:24:00.717Z,100918.03
2022-10-19T06:26:28.955Z,100908.88
2022-10-19T06:29:00.341Z,100909.78
2022-10-19T06:31:29.455Z,100909.19
2022-10-19T06:33:57.151Z,100907.50
2022-10-19T06:36:27.062Z,100899.84
2022-10-19T06:38:55.179Z,100903.66
2022-10-19T06:41:22.948Z,100906.38
2022-10-19T06:43:51.979Z,100905.38
2022-10-19T06:46:22.207Z,100906.41
2022-10-19T06:48:55.169Z,100906.66
2022-10-19T06:51:23.500Z,100895.41
2022-10-19T06:53:56.629Z,100897.47
2022-10-19T06:56:25.731Z,100885.50
2022-10-19T06:58:54.184Z,100874.63
2022-10-19T07:01:22.444Z,100876.13
2022-10-19T07:03:53.433Z,100866.47
2022-10-19T07:06:21.349Z,100863.06
2022-10-19T07:08:49.641Z,100853.09
2022-10-19T07:11:21.068Z,100846.50
2022-10-19T07:13:48.679Z,100849.38
2022-10-19T07:16:20.627Z,100854.28
2022-10-19T07:18:53.151Z,100853.34
2022-10-19T07:21:22.005Z,100826.06
2022-10-19T07:23:49.677Z,100841.03
2022-10-19T07:26:21.541Z,100823.81
2022-10-19T07:28:49.464Z,100805.50
2022-10-19T07:31:20.393Z,100804.91
2022-10-19T07:33:52.225Z,100805.13
2022-10-19T07:36:19.870Z,100805.19
2022-10-19T07:38:47.733Z,100804.63
2022-10-19T07:41:17.145Z,100786.53
2022-10-19T07:43:45.213Z,100783.38
2022-10-19T07:46:20.460Z,100782.34
2022-10-19T07:48:48.148Z,100769.28
2022-10-19T07:51:18.717Z,100776.28
2022-10-19T07:53:46.670Z,100767.22
2022-10-19T07:56:16.483Z,100761.72
2022-10-19T07:58:44.313Z,100759.19
2022-10-19T08:01:14.278Z,100748.84
2022-10-19T08:04:31.678Z,100749.25
2022-10-19T08:06:32.188Z,100762.56
2022-10-19T08:09:03.855Z,100749.88
2022-10-19T08:11:34.804Z,100751.78
2022-10-19T08:14:04.062Z,100756.84
2022-10-19T08:16:37.673Z,100750.91
2022-10-19T08:19:18.925Z,100735.25
2022-10-19T08:21:47.252Z,100732.84
2022-10-19T08:24:16.472Z,100734.13
2022-10-19T08:26:44.607Z,100732.84
2022-10-19T08:29:17.824Z,100722.22
2022-10-19T08:31:48.096Z,100716.44
2022-10-19T08:34:21.379Z,100727.44
2022-10-19T08:36:49.187Z,100735.28
2022-10-19T08:39:18.414Z,100722.38
2022-10-19T08:42:01.256Z,100716.63
2022-10-19T08:44:35.253Z,100710.41
2022-10-19T08:47:34.144Z,100711.41
2022-10-19T08:50:02.174Z,100716.47
2022-10-19T08:52:34.686Z,100714.81
2022-10-19T08:55:15.120Z,100731.31
2022-10-19T08:58:00.338Z,100741.91
2022-10-19T09:00:52.504Z,100739.94
2022-10-19T09:03:37.543Z,100743.41
2022-10-19T09:06:22.185Z,100752.84
2022-10-19T09:08:51.469Z,100746.66
2022-10-19T09:11:26.177Z,100735.75
2022-10-19T09:14:21.992Z,100742.09
2022-10-19T09:16:49.927Z,100739.34
2022-10-19T09:19:25.843Z,100723.44
2022-10-19T09:22:08.128Z,100739.34
2022-10-19T09:24:43.121Z,100728.75
2022-10-19T09:27:35.782Z,100726.94
2022-10-19T09:30:11.317Z,100722.31
2022-10-19T09:32:39.160Z,100719.78
2022-10-19T09:35:17.678Z,100711.69
2022-10-19T09:37:47.231Z,100715.31
2022-10-19T09:40:18.324Z,100697.16
2022-10-19T09:42:45.936Z,100706.25
2022-10-19T09:45:17.405Z,100696.69
2022-10-19T09:47:46.544Z,100702.41
2022-10-19T09:50:22.241Z,100702.41
2022-10-19T09:52:57.325Z,100686.56
2022-10-19T09:55:29.248Z,100689.94
2022-10-19T09:58:15.537Z,100676.13
2022-10-19T10:00:52.769Z,100665.63
2022-10-19T10:03:46.564Z,100664.59
2022-10-19T10:06:15.216Z,100652.81
2022-10-19T10:08:53.267Z,100645.59
2022-10-19T10:11:28.179Z,100650.56
2022-10-19T10:13:56.076Z,100642.75
2022-10-19T10:16:25.801Z,100653.56
2022-10-19T10:19:13.861Z,100651.69
2022-10-19T10:21:54.756Z,100635.25
2022-10-19T10:24:27.570Z,100633.25
2022-10-19T10:26:59.986Z,100630.50
2022-10-19T10:29:28.955Z,100628.91
2022-10-19T10:32:04.776Z,100618.16
2022-10-19T10:34:49.371Z,100616.94
2022-10-19T10:37:23.422Z,100605.16
2022-10-19T10:39:56.721Z,100601.97
2022-10-19T10:42:33.337Z,100592.41
2022-10-19T10:45:01.193Z,100597.97
2022-10-19T10:47:30.466Z,100597.97
2022-10-19T10:50:00.033Z,100588.63
2022-10-19T10:52:29.236Z,100582.19
2022-10-19T10:55:08.446Z,100587.50
2022-10-19T10:57:40.203Z,100566.00
2022-10-19T11:00:19.450Z,100572.84
2022-10-19T11:02:49.004Z,100567.44
2022-10-19T11:05:24.252Z,100564.91
2022-10-19T11:07:59.212Z,100578.25
2022-10-19T11:10:30.504Z,100580.41
2022-10-19T11:13:18.141Z,100568.53
2022-10-19T11:16:01.165Z,100547.53
2022-10-19T11:18:44.476Z,100547.38
2022-10-19T11:21:14.920Z,100545.91
2022-10-19T11:23:52.154Z,100552.00
2022-10-19T11:26:31.757Z,100552.38
2022-10-19T11:29:43.278Z,100546.66
2022-10-19T11:32:37.195Z,100561.66
2022-10-19T11:35:42.546Z,100556.00
2022-10-19T11:39:01.136Z,100556.31
2022-10-19T11:41:47.196Z,100558.22
2022-10-19T11:44:46.998Z,100553.91
2022-10-19T11:47:33.662Z,100546.59
2022-10-19T11:50:10.794Z,100539.16
2022-10-19T11:53:03.101Z,100539.84
2022-10-19T11:55:55.658Z,100533.50
2022-10-19T11:58:34.473Z,100538.06
2022-10-19T12:01:35.006Z,100533.72
2022-10-19T12:04:28.723Z,100520.38
2022-10-19T12:07:11.843Z,100525.09
2022-10-19T12:09:48.402Z,100526.16
2022-10-19T12:12:23.765Z,100524.25
2022-10-19T12:14:53.715Z,100529.78
2022-10-19T12:17:25.828Z,100526.41
2022-10-19T12:19:56.033Z,100528.31
2022-10-19T12:22:25.749Z,100519.91
2022-10-19T12:24:55.543Z,100526.94
2022-10-19T12:27:38.720Z,100526.59
2022-10-19T12:30:08.438Z,100522.03
2022-10-19T12:33:22.218Z,100520.25
2022-10-19T12:36:19.688Z,100517.16
2022-10-19T12:39:01.073Z,100524.78
2022-10-19T12:41:35.896Z,100514.78
2022-10-19T12:44:21.580Z,100520.75
2022-10-19T12:46:58.779Z,100525.81
2022-10-19T12:49:30.782Z,100518.25
2022-10-19T12:51:59.365Z,100513.66
2022-10-19T12:54:31.964Z,100506.13
2022-10-19T12:57:01.154Z,100505.63
2022-10-19T12:59:36.109Z,100495.38
2022-10-19T13:02:05.918Z,100498.44
2022-10-19T13:04:34.915Z,100494.22
2022-10-19T13:07:04.590Z,100500.84
2022-10-19T13:09:34.398Z,100483.31
2022-10-19T13:12:21.618Z,100490.50
2022-10-19T13:15:35.293Z,100474.34
2022-10-19T13:18:14.580Z,100475.66
2022-10-19T13:20:52.760Z,100478.34
2022-10-19T13:23:26.948Z,100471.66
2022-10-19T13:26:23.818Z,100476.19
2022-10-19T13:28:53.642Z,100466.94
2022-10-19T13:31:27.271Z,100467.31
2022-10-19T13:33:55.624Z,100465.72
2022-10-19T13:36:23.535Z,100464.50
2022-10-19T13:38:56.068Z,100456.00
2022-10-19T13:41:28.243Z,100453.47
2022-10-19T13:44:12.594Z,100461.28
2022-10-19T13:47:08.938Z,100458.97
2022-10-19T13:50:26.669Z,100451.16
2022-10-19T13:53:24.843Z,100455.78
2022-10-19T13:56:05.609Z,100450.13
2022-10-19T13:58:45.062Z,100448.34
2022-10-19T14:01:18.451Z,100438.84
2022-10-19T14:04:06.948Z,100442.44
2022-10-19T14:06:35.205Z,100445.44
2022-10-19T14:09:24.890Z,100440.44
2022-10-19T14:11:56.145Z,100440.78
2022-10-19T14:14:24.705Z,100443.75
2022-10-19T14:16:59.659Z,100436.88
2022-10-19T14:19:44.883Z,100440.38
2022-10-19T14:22:38.601Z,100441.75
2022-10-19T14:25:16.910Z,100438.09
2022-10-19T14:27:56.615Z,100444.50
2022-10-19T14:30:28.620Z,100452.09
2022-10-19T14:32:59.455Z,100453.19
2022-10-19T14:35:32.140Z,100454.09
2022-10-19T14:38:00.336Z,100444.63
2022-10-19T14:40:32.650Z,100445.00
2022-10-19T14:43:00.982Z,100445.81
2022-10-19T14:45:30.069Z,100441.06
2022-10-19T14:48:04.667Z,100435.69
2022-10-19T14:50:42.093Z,100439.31
2022-10-19T14:53:24.860Z,100444.94
2022-10-19T14:55:53.446Z,100438.44
2022-10-19T14:58:21.107Z,100443.78
2022-10-19T15:00:49.299Z,100442.81
2022-10-19T15:03:26.006Z,100436.09
2022-10-19T15:06:00.144Z,100450.50
2022-10-19T15:08:35.137Z,100449.25
2022-10-19T15:11:03.982Z,100446.53
2022-10-19T15:13:35.109Z,100450.81
2022-10-19T15:16:07.056Z,100447.69
2022-10-19T15:18:49.778Z,100459.75
2022-10-19T15:21:19.972Z,100456.41
2022-10-19T15:23:51.560Z,100459.75
2022-10-19T15:26:26.023Z,100454.75
2022-10-19T15:28:54.854Z,100453.00
2022-10-19T15:31:27.484Z,100453.88
2022-10-19T15:33:56.928Z,100461.88
2022-10-19T15:36:24.709Z,100465.91
2022-10-19T15:39:06.405Z,100469.16
2022-10-19T15:41:46.095Z,100461.38
2022-10-19T15:44:53.486Z,100471.75
2022-10-19T15:47:23.984Z,100473.00
2022-10-19T15:49:54.700Z,100470.69
2022-10-19T15:52:24.264Z,100464.19
2022-10-19T15:54:57.371Z,100466.72
2022-10-19T15:57:36.094Z,100467.16
2022-10-19T16:00:15.123Z,100477.03
2022-10-19T16:02:43.152Z,100475.16
2022-10-19T16:05:11.662Z,100480.19
2022-10-19T16:07:41.009Z,100483.13
2022-10-19T16:10:22.013Z,100469.66
2022-10-19T16:12:49.935Z,100473.47
2022-10-19T16:15:22.534Z,100470.91
2022-10-19T16:17:54.220Z,100486.91
2022-10-19T16:20:23.222Z,100490.66
2022-10-19T16:22:51.122Z,100493.38
2022-10-19T16:25:18.831Z,100494.94
2022-10-19T16:27:46.604Z,100484.50
2022-10-19T16:30:14.221Z,100473.47
2022-10-19T16:32:43.611Z,100471.72
2022-10-19T16:35:11.818Z,100463.38
2022-10-19T16:37:40.336Z,100460.16
2022-10-19T16:40:09.600Z,100465.97
2022-10-19T16:42:37.617Z,100441.56
2022-10-19T16:45:05.988Z,100436.63
2022-10-19T16:47:34.475Z,100450.66
2022-10-19T16:50:02.938Z,100456.25
2022-10-19T16:52:33.311Z,100453.19
2022-10-19T16:55:01.954Z,100456.69
2022-10-19T16:57:29.995Z,100456.91
2022-10-19T16:59:57.806Z,100456.91
2022-10-19T17:02:25.452Z,100446.59
2022-10-19T17:04:53.331Z,100438.94
2022-10-19T17:07:21.156Z,100450.94
2022-10-19T17:09:52.286Z,100443.06
2022-10-19T17:12:25.239Z,100440.09
2022-10-19T17:14:59.490Z,100446.38
2022-10-19T17:17:40.177Z,100433.50
2022-10-19T17:20:11.329Z,100438.97
2022-10-19T17:22:39.771Z,100432.19
2022-10-19T17:25:07.613Z,100430.31
2022-10-19T17:27:35.529Z,100415.44
2022-10-19T17:30:03.776Z,100414.53
2022-10-19T17:32:33.069Z,100408.22
2022-10-19T17:35:01.149Z,100408.06
2022-10-19T17:37:28.934Z,100416.03
2022-10-19T17:39:56.497Z,100426.56
2022-10-19T17:42:24.358Z,100415.19
2022-10-19T17:44:54.109Z,100413.50
2022-10-19T17:47:21.750Z,100412.03
2022-10-19T17:49:49.672Z,100410.38
2022-10-19T17:52:17.477Z,100399.66
2022-10-19T17:54:54.739Z,100408.44
2022-10-19T17:57:36.029Z,100410.06
2022-10-19T18:00:05.276Z,100412.84
2022-10-19T18:02:40.710Z,100410.97
2022-10-19T18:05:09.106Z,100415.56
2022-10-19T18:07:36.965Z,100423.31
2022-10-19T18:10:05.822Z,100419.94
2022-10-19T18:12:35.373Z,100418.28
2022-10-19T18:15:03.429Z,100415.97
2022-10-19T18:17:31.822Z,100418.28
2022-10-19T18:19:59.677Z,100420.97
2022-10-19T18:22:27.613Z,100422.13
2022-10-19T18:24:55.425Z,100417.78
2022-10-19T18:27:23.053Z,100415.88
2022-10-19T18:29:50.984Z,100411.88
2022-10-19T18:32:19.725Z,100414.00
2022-10-19T18:34:47.428Z,100408.94
2022-10-19T18:37:15.011Z,100418.44
2022-10-19T18:39:42.784Z,100411.03
2022-10-19T18:42:12.891Z,100409.78
2022-10-19T18:44:41.413Z,100411.50
2022-10-19T18:47:09.049Z,100410.81
2022-10-19T18:49:36.570Z,100405.84
2022-10-19T18:52:04.209Z,100414.00
2022-10-19T18:54:32.192Z,100412.91
2022-10-19T18:57:00.199Z,100411.03
2022-10-19T19:02:00.773Z,100405.56
2022-10-19T19:04:28.447Z,100406.41
2022-10-19T19:06:57.361Z,100406.22
2022-10-19T19:09:26.433Z,100402.47
2022-10-19T19:11:57.854Z,100406.31
2022-10-19T19:14:26.553Z,100401.28
2022-10-19T19:16:56.610Z,100403.38
2022-10-19T19:19:25.984Z,100392.72
2022-10-19T19:21:54.460Z,100392.06
2022-10-19T19:24:22.822Z,100387.38
2022-10-19T19:26:52.129Z,100389.47
2022-10-19T19:29:20.335Z,100390.31
2022-10-19T19:31:48.199Z,100380.66
2022-10-19T19:34:15.997Z,100384.00
2022-10-19T19:36:48.166Z,100384.47
2022-10-19T19:39:18.851Z,100390.50
2022-10-19T19:41:47.034Z,100391.28
2022-10-19T19:44:14.660Z,100388.56
2022-10-19T19:46:42.571Z,100389.00
2022-10-19T19:49:10.467Z,100393.69
2022-10-19T19:51:38.068Z,100391.56
2022-10-19T19:54:06.955Z,100405.19
2022-10-19T19:56:34.874Z,100399.91
2022-10-19T19:59:05.297Z,100407.00
2022-10-19T20:01:33.813Z,100399.34
2022-10-19T20:06:31.445Z,100397.38
2022-10-19T20:08:59.100Z,100397.59
2022-10-19T20:11:28.340Z,100396.53
2022-10-19T20:13:56.219Z,100396.38
2022-10-19T20:16:28.342Z,100389.47
2022-10-19T20:19:09.241Z,100398.28
2022-10-19T20:21:37.179Z,100384.78
2022-10-19T20:24:06.945Z,100379.91
2022-10-19T20:26:35.415Z,100388.56
2022-10-19T20:29:03.504Z,100387.06
2022-10-19T20:31:32.001Z,100383.88
2022-10-19T20:33:59.606Z,100380.56
2022-10-19T20:36:27.277Z,100379.66
2022-10-19T20:38:56.471Z,100386.47
2022-10-19T20:41:25.773Z,100391.03
2022-10-19T20:43:53.941Z,100389.97
2022-10-19T20:46:23.324Z,100383.22
2022-10-19T20:48:51.003Z,100373.53
2022-10-19T20:51:25.990Z,100371.56
2022-10-19T20:53:57.380Z,100376.34
2022-10-19T20:56:26.767Z,100360.44
2022-10-19T20:58:58.141Z,100364.66
2022-10-19T21:01:26.722Z,100362.97
2022-10-19T21:03:56.234Z,100358.56
2022-10-19T21:06:26.117Z,100355.84
2022-10-19T21:08:54.190Z,100360.44
2022-10-19T21:11:22.964Z,100365.44
2022-10-19T21:13:57.760Z,100363.38
2022-10-19T21:16:37.757Z,100356.22
2022-10-19T21:19:06.986Z,100351.03
2022-10-19T21:21:36.151Z,100358.19
2022-10-19T21:24:15.288Z,100348.94
2022-10-19T21:26:43.091Z,100347.84
2022-10-19T21:29:11.430Z,100348.50
2022-10-19T21:31:43.052Z,100352.06
2022-10-19T21:34:19.150Z,100347.91
2022-10-19T21:36:46.994Z,100343.69
2022-10-19T21:39:17.515Z,100334.91
2022-10-19T21:41:45.416Z,100344.53
2022-10-19T21:44:13.945Z,100336.09
2022-10-19T21:46:43.722Z,100333.50
2022-10-19T21:49:12.297Z,100332.00
2022-10-19T21:51:51.151Z,100329.47
2022-10-19T21:54:24.847Z,100330.91
2022-10-19T21:56:53.507Z,100332.72
2022-10-19T21:59:21.228Z,100341.06
2022-10-19T22:01:50.343Z,100340.91
2022-10-19T22:04:18.534Z,100337.53
2022-10-19T22:06:46.283Z,100331.81
2022-10-19T22:09:16.216Z,100340.34
2022-10-19T22:11:44.150Z,100336.66
2022-10-19T22:14:12.801Z,100340.25
2022-10-19T22:16:40.822Z,100343.63
2022-10-19T22:19:10.865Z,100345.69
2022-10-19T22:21:39.777Z,100343.78
2022-10-19T22:24:10.693Z,100343.41
2022-10-19T22:26:48.092Z,100341.75
2022-10-19T22:29:15.763Z,100330.84
2022-10-19T22:31:43.526Z,100325.25
2022-10-19T22:34:13.523Z,100336.31
2022-10-19T22:36:41.081Z,100325.94
2022-10-19T22:39:08.818Z,100323.47
2022-10-19T22:41:37.114Z,100330.03
2022-10-19T22:44:05.114Z,100327.59
2022-10-19T22:46:34.038Z,100323.47
2022-10-19T22:49:02.245Z,100319.06
2022-10-19T22:51:32.523Z,100324.88
2022-10-19T22:54:00.733Z,100316.44
2022-10-19T22:56:28.673Z,100328.75
2022-10-19T22:59:00.456Z,100320.22
2022-10-19T23:01:28.505Z,100326.41
2022-10-19T23:03:56.662Z,100322.78
2022-10-19T23:06:24.554Z,100321.19
2022-10-19T23:08:53.138Z,100320.81
2022-10-19T23:11:22.310Z,100318.81
2022-10-19T23:13:50.082Z,100319.75
2022-10-19T23:16:17.997Z,100306.97
2022-10-19T23:18:45.662Z,100308.66
2022-10-19T23:21:14.700Z,100306.31
2022-10-19T23:23:42.584Z,100310.06
2022-10-19T23:26:14.177Z,100313.91
2022-10-19T23:28:43.303Z,100317.13
2022-10-19T23:31:13.079Z,100306.59
2022-10-19T23:33:43.201Z,100307.44
2022-10-19T23:36:21.116Z,100301.31
2022-10-19T23:38:49.380Z,100303.72
2022-10-19T23:41:17.631Z,100294.56
2022-10-19T23:43:45.610Z,100301.72
2022-10-19T23:46:13.436Z,100303.13
2022-10-19T23:48:42.484Z,100305.00
2022-10-19T23:51:11.966Z,100299.56
2022-10-19T23:53:41.728Z,100295.16
2022-10-19T23:56:19.247Z,100294.50
2022-10-19T23:58:47.269Z,100280.41
